Trenton, NJ (08601)

12:03 PM EDT on August 31, 2015 (GMT -0400)
Morris Heights | | Change Station
CLOSE
Current Station
Personal Weather Station
Location: Morrisville, PA
Elevation: 89 ft
Nearby Weather Stations

Elev 89 ft 40.22 °N, 74.78 °W | Updated 11 seconds ago

Partly Cloudy
Partly Cloudy
88.7 °F
Feels Like 95 °F
N
2.4
Wind Variable Wind from SE
Gusts 4.6 mph

Today
High -- | Low -- °F
--% Chance of Precip.
Yesterday
High -- | Low -- °F
Precip. -- in
6:25 AM 7:32 PM
Waning Gibbous, 95% visible
Pressure 30.03 in
Visibility 9.0 miles
Clouds Clear
Heat Index 95 °F
Dew Point 71 °F
Humidity 56%
Rainfall 0.00 in
Snow Depth Not available.
UV 7 out of 12
Pollen 9.40 out of 12
Air Quality Not available.
Flu Activity Not available.
METAR KTTN 311453Z 27006KT 9SM CLR 28/20 A3005 RMK AO2 SLP169 T02780200 58002
Pressure 30.03 in
Visibility 9.0 miles
Clouds Clear
Heat Index 95 °F
Dew Point 71 °F
Humidity 56%
Rainfall 0.00 in
Snow Depth Not available.
UV 7 out of 12
Pollen 9.40 out of 12
Air Quality Not available.
Flu Activity Not available.
METAR KTTN 311453Z 27006KT 9SM CLR 28/20 A3005 RMK AO2 SLP169 T02780200 58002

10-Day Weather Forecast

×

Almanac

Astronomy

Aug. 31, 2015 Rise Set
Actual Time
Civil Twilight
Nautical Twilight
Astronomical Twilight
Moon
Length of Visible Light
Length of Day
Tomorrow will be .
, % of the Moon is Illuminated

Today's Extremes

State Highs State Lows

Community

WunderPhotos

Upload Photos

1,851,298 photos uploaded!

WunderBlogs® & News

Nearby

Air Quality

  Air Quality AQ Index Pollutant
Not available.

Snow Depth

Station Depth Elevation

Earthquake Activity

City Distance Mag. Time & Date
Minimum magnitude displayed is 2.5.

Coastal Water Temperatures

Place Temperature

Stations

Nearby Weather Stations

Station Location Temp. Windchill Dew Point Humidity Wind Precip. Elev Updated Type